METAR Data
IDs: Format: Raw Decoded Include TAF

Data at: 0252 UTC 12 May 2021

KVPZ 120156Z AUTO 36004KT 10SM CLR 05/M01 A3040 RMK AO2 SLP297 T00501006
KVPZ 120056Z AUTO 01007KT 10SM CLR 06/M01 A3036 RMK AO2 SLP287 T00611011
KVPZ 112356Z AUTO 01006G17KT 10SM CLR 08/M01 A3036 RMK AO2 SLP285 T00781011 10111 20078 53008
KVPZ 112256Z AUTO 35011G18KT 10SM CLR 09/M01 A3035 RMK AO2 SLP284 T00891011
KVPZ 112156Z AUTO 01011G19KT 10SM CLR 10/M01 A3034 RMK AO2 SLP277 T01001006
KVPZ 112056Z AUTO 01013G23KT 10SM CLR 11/M02 A3033 RMK AO2 SLP276 T01061017 58008
KVPZ 111956Z AUTO 36010G24KT 10SM CLR 11/M01 A3035 RMK AO2 SLP281 T01061011
KVPZ 111856Z AUTO 35012KT 10SM CLR 11/M01 A3035 RMK AO2 SLP280 T01111011
KVPZ 111756Z AUTO 01011G19KT 10SM CLR 11/01 A3036 RMK AO2 SLP285 T01110006 10111 20056 50005
KVPZ 111656Z AUTO 34010G18KT 10SM SCT046 11/00 A3037 RMK AO2 SLP287 T01060000
KVPZ 111556Z AUTO 36010G16KT 10SM CLR 11/00 A3035 RMK AO2 SLP283 T01060000
KVPZ 111456Z AUTO 03009KT 10SM SCT038 BKN050 10/01 A3035 RMK AO2 SLP279 T01000011 51012
KVPZ 111356Z AUTO 02007KT 10SM CLR 08/01 A3034 RMK AO2 SLP278 T00830011
KVPZ 111256Z AUTO 06005KT 10SM CLR 07/03 A3032 RMK AO2 SLP271 T00720028
KVPZ 111156Z AUTO 06003KT 10SM CLR 06/02 A3031 RMK AO2 SLP268 T00560022 10056 20033 53020
KVPZ 111056Z AUTO 00000KT 10SM CLR 03/01 A3029 RMK AO2 SLP262 T00330006
KVPZ 110956Z AUTO 01003KT 10SM CLR 03/00 A3027 RMK AO2 SLP253 T00330000
KVPZ 110856Z AUTO 01005KT 10SM SCT095 BKN110 04/01 A3025 RMK AO2 SLP247 T00440006 51010
KVPZ 110756Z AUTO 35003KT 10SM BKN090 OVC120 05/01 A3024 RMK AO2 SLP243 T00500006
KVPZ 110656Z AUTO 36004KT 10SM SCT090 OVC120 05/01 A3023 RMK AO2 SLP240 T00500006
KVPZ 110556Z AUTO 02003KT 10SM SCT120 04/01 A3022 RMK AO2 SLP236 T00440011 10072 20044 50001
KVPZ 110456Z AUTO 00000KT 10SM FEW080 FEW100 05/01 A3022 RMK AO2 SLP239 T00500011 401390011
KVPZ 110356Z AUTO 00000KT 10SM SCT100 05/00 A3022 RMK AO2 SLP238 T00500000
KVPZ 110256Z AUTO 00000KT 10SM OVC100 06/00 A3021 RMK AO2 SLP236 T00610000 53014
KVPZ 110156Z AUTO 04004KT 10SM OVC090 06/00 A3020 RMK AO2 SLP229 T00610000
KVPZ 110056Z AUTO 02007KT 10SM OVC100 07/M01 A3019 RMK AO2 SLP226 T00671006
KVPZ 102356Z AUTO 01008KT 10SM OVC110 07/02 A3017 RMK AO2 SLP223 T00720022 10139 20072 53010
KVPZ 102256Z AUTO 01009G16KT 10SM BKN110 08/01 A3016 RMK AO2 SLP217 T00830011
KVPZ 102156Z AUTO 01009G19KT 10SM FEW100 BKN120 11/03 A3014 RMK AO2 SLP212 T01060028
KVPZ 102056Z AUTO 01011KT 10SM FEW080 11/03 A3014 RMK AO2 SLP211 T01110033 53002
KVPZ 101956Z AUTO 03009G15KT 10SM BKN075 14/05 A3013 RMK AO2 SLP206 T01390050
KVPZ 101856Z AUTO 06003KT 10SM FEW039 BKN075 13/04 A3013 RMK AO2 SLP205 T01330044
KVPZ 101756Z AUTO 03004KT 10SM BKN055 BKN070 12/04 A3013 RMK AO2 RAB19E29 SLP208 P0000 60000 T01220039 10122 20050 50000
KVPZ 101656Z AUTO 16003KT 10SM FEW049 BKN060 11/02 A3015 RMK AO2 SLP214 T01060017
KVPZ 101556Z AUTO 00000KT 10SM SCT065 BKN075 OVC095 10/01 A3015 RMK AO2 SLP213 T01000006
KVPZ 101456Z AUTO 04003KT 10SM OVC080 09/02 A3013 RMK AO2 SLP208 T00940017 51008